KDKB

De Kalb Taylor Municipal Airport

De Kalb, Illinois, USA
METAR KDKB 161755Z AUTO 06006KT 10SM SCT027 00/M07 A3026 RMK AO2 T10051068 10000 21037
Observed Flight Rules
Jan-16 @ 17:55 UTC (35 minutes ago) Visual Flight Rules
Wind Visibility Clouds
60° at 6 knots 10 miles
  • Scattered at 2,700' AGL
Temperatures Readings
Current -1°C / 30°F
Dewpoint -7°C / 19°F
Humidity 64%
Altimeter 30.26" Hg
Pressure 1024.72 hPa
Elevation 279
METAR KDKB 161755Z AUTO 06006KT 10SM SCT027 00/M07 A3026 RMK AO2 T10051068 10000 21037
Observed Flight Rules
Jan-16 @ 17:55 UTC
(35 minutes ago)
VFR
Wind Visibility
60° at 6 knots 10 miles
Clouds
  • Scattered at 2,700' AGL
Temperature Dewpoint
-1°C / 30°F -7°C / 19°F
Humidity Altimeter Pressure
64% 30.26" Hg 1024.72 hPa